Crotonville, New York
Current Conditions -  °F | °C
As of 10:56 PM on Sunday 25 Jan 2015 (Local Time) from KHPN Reporting Station
Broken Clouds Broken Clouds  
Wind Chill: 14°   Ceiling: 9000
Heat Index: 25°   Visibility: 10mi
Dew Point:   Wind: 12mph
Humidity: 45%   Direction: 360°N
Pressure: 29.97"   Gusts: NA
Location:  41.1949°N, 73.8307°W
Report Text: KHPN 260356Z 36010KT 10SM FEW055 BKN090 M04/M14 A2997 RMK AO2 SLP158 T10391144 $
Loading
Personal Weather Stations






























Interactive Weather Map New forecast layout! Learn more

10-Day Weather Forecast

Advertisements
Track Severe Weather on mobile